createdAt,value
2023-02-27T07:36:41.403Z,0.30
2023-02-27T07:43:56.665Z,0.60
2023-02-27T08:02:44.274Z,-0.40
2023-02-27T08:08:45.926Z,1.20
2023-02-27T08:11:59.505Z,1.30
2023-02-27T08:18:05.930Z,1.40
2023-02-27T08:23:35.256Z,1.30
2023-02-27T08:27:01.482Z,1.60
2023-02-27T09:20:17.921Z,2.90
2023-02-27T09:22:36.251Z,2.90
2023-02-27T09:26:00.142Z,3.00
2023-02-27T09:28:44.808Z,3.00
2023-02-27T09:34:55.831Z,3.20
2023-02-27T09:41:01.436Z,3.40
2023-02-27T09:46:06.261Z,3.50
2023-02-27T10:06:28.161Z,3.90
2023-02-27T10:09:37.017Z,4.20
2023-02-27T10:12:43.790Z,4.00
2023-02-27T10:15:39.285Z,3.90
2023-02-27T10:25:28.698Z,4.10
2023-02-27T10:33:38.586Z,4.00
2023-02-27T10:39:26.747Z,4.60
2023-02-27T10:44:28.936Z,4.60
2023-02-27T10:48:46.255Z,5.00
2023-02-27T10:50:46.388Z,4.90
2023-02-27T10:53:35.961Z,6.40
2023-02-27T10:56:19.159Z,6.60
2023-02-27T11:03:47.523Z,7.20
2023-02-27T11:06:24.902Z,6.10
2023-02-27T11:09:22.370Z,9.70
2023-02-27T11:11:51.610Z,7.40
2023-02-27T11:14:36.101Z,9.70
2023-02-27T11:17:04.624Z,7.60
2023-02-27T11:19:39.266Z,7.90
2023-02-27T11:22:28.031Z,7.20
2023-02-27T11:25:19.865Z,8.30
2023-02-27T11:27:52.054Z,7.30
2023-02-27T11:30:28.559Z,8.20
2023-02-27T11:32:59.077Z,7.40
2023-02-27T11:35:38.648Z,7.30
2023-02-27T11:38:07.881Z,7.00
2023-02-27T11:40:42.563Z,7.10
2023-02-27T11:43:34.638Z,7.40
2023-02-27T11:46:46.587Z,6.70
2023-02-27T11:49:31.511Z,6.70
2023-02-27T11:52:45.979Z,6.70
2023-02-27T11:55:18.089Z,6.70
2023-02-27T11:57:47.079Z,6.50
2023-02-27T12:02:53.416Z,6.40
2023-02-27T12:08:18.298Z,6.20
2023-02-27T12:10:52.039Z,6.30
2023-02-27T12:13:27.468Z,6.20
2023-02-27T12:16:04.894Z,6.10
2023-02-27T12:18:53.248Z,6.00
2023-02-27T12:21:29.881Z,6.00
2023-02-27T12:24:03.771Z,6.00
2023-02-27T12:26:43.758Z,6.10
2023-02-27T12:29:43.726Z,6.00
2023-02-27T12:32:24.121Z,6.10
2023-02-27T12:35:06.617Z,6.20
2023-02-27T12:37:33.862Z,6.80
2023-02-27T12:40:07.770Z,6.90
2023-02-27T12:43:05.942Z,7.30
2023-02-27T12:46:01.723Z,7.50
2023-02-27T12:48:44.294Z,8.10
2023-02-27T12:51:15.978Z,7.50
2023-02-27T12:56:17.115Z,6.90
2023-02-27T12:59:09.116Z,6.90
2023-02-27T13:01:51.826Z,6.90
2023-02-27T13:04:26.235Z,6.90
2023-02-27T13:07:04.964Z,6.90
2023-02-27T13:09:55.681Z,6.80
2023-02-27T13:12:36.277Z,6.80
2023-02-27T13:15:27.071Z,8.50
2023-02-27T13:18:30.544Z,4.50
2023-02-27T13:21:09.984Z,6.80
2023-02-27T13:23:50.093Z,7.00
2023-02-27T13:26:27.226Z,6.60
2023-02-27T13:28:55.837Z,6.50
2023-02-27T13:31:53.078Z,6.50
2023-02-27T13:34:27.798Z,6.40
2023-02-27T13:37:14.452Z,6.80
2023-02-27T13:39:47.284Z,6.50
2023-02-27T13:42:26.610Z,7.20
2023-02-27T13:45:02.051Z,7.80
2023-02-27T13:50:21.963Z,6.50
2023-02-27T13:55:43.329Z,6.60
2023-02-27T13:58:18.012Z,6.40
2023-02-27T14:01:03.147Z,6.30
2023-02-27T14:03:32.210Z,6.40
2023-02-27T14:06:04.228Z,6.30
2023-02-27T14:08:46.575Z,6.30
2023-02-27T14:11:24.973Z,7.60
2023-02-27T14:16:40.226Z,6.30
2023-02-27T14:19:17.274Z,6.40
2023-02-27T14:21:53.405Z,6.40
2023-02-27T14:24:28.834Z,6.60
2023-02-27T14:26:57.022Z,6.60
2023-02-27T14:29:33.401Z,6.70
2023-02-27T14:32:01.930Z,7.00
2023-02-27T14:34:29.626Z,6.30
2023-02-27T14:37:01.719Z,6.60
2023-02-27T14:39:33.638Z,8.30
2023-02-27T14:42:21.705Z,7.30
2023-02-27T14:44:50.969Z,7.70
2023-02-27T14:47:33.335Z,6.60
2023-02-27T14:50:31.346Z,6.60
2023-02-27T14:55:35.517Z,6.70
2023-02-27T14:58:32.032Z,6.90
2023-02-27T15:01:12.871Z,6.70
2023-02-27T15:04:12.283Z,6.70
2023-02-27T15:07:00.672Z,6.70
2023-02-27T15:10:12.131Z,6.30
2023-02-27T15:15:48.979Z,6.70
2023-02-27T15:19:09.554Z,6.10
2023-02-27T15:21:59.062Z,6.70
2023-02-27T15:24:35.241Z,6.80
2023-02-27T15:30:50.842Z,6.90
2023-02-27T15:33:22.631Z,6.80
2023-02-27T15:35:50.098Z,8.00
2023-02-27T15:38:40.267Z,6.80
2023-02-27T15:42:07.354Z,6.70
2023-02-27T15:44:54.384Z,6.70
2023-02-27T15:47:44.752Z,6.70
2023-02-27T15:50:39.086Z,6.60
2023-02-27T15:53:25.966Z,6.60
2023-02-27T15:56:22.953Z,5.60
2023-02-27T15:59:29.908Z,6.40
2023-02-27T16:09:23.881Z,6.40
2023-02-27T16:12:35.898Z,6.30
2023-02-27T16:16:09.508Z,6.20
2023-02-27T16:19:25.582Z,6.30
2023-02-27T16:22:14.931Z,6.10
2023-02-27T16:24:45.402Z,6.20
2023-02-27T16:27:19.703Z,6.20
2023-02-27T16:32:46.936Z,6.20
2023-02-27T16:35:32.294Z,6.10
2023-02-27T16:38:12.098Z,6.10
2023-02-27T16:43:43.055Z,6.10
2023-02-27T16:46:23.938Z,5.70
2023-02-27T16:49:17.619Z,5.90
2023-02-27T16:56:46.540Z,5.80
2023-02-27T16:59:34.458Z,5.80
2023-02-27T17:02:25.091Z,6.50
2023-02-27T17:10:23.120Z,5.80
2023-02-27T17:12:58.645Z,5.60
2023-02-27T17:40:26.131Z,5.50
2023-02-27T17:48:05.247Z,5.10
2023-02-27T18:07:56.043Z,5.20
2023-02-27T18:10:25.220Z,6.70
2023-02-27T18:12:55.507Z,4.90
2023-02-27T18:15:23.193Z,5.10
2023-02-27T18:17:53.030Z,5.70
2023-02-27T18:28:01.584Z,5.10
2023-02-27T18:30:40.900Z,5.10
2023-02-27T18:33:10.507Z,5.00
2023-02-27T18:48:07.531Z,5.00
2023-02-27T18:50:42.396Z,5.30
2023-02-27T18:53:10.882Z,3.90
2023-02-27T19:00:43.791Z,5.00
2023-02-27T19:16:04.883Z,4.80
2023-02-27T19:21:09.096Z,4.80
2023-02-27T19:26:05.076Z,4.70
2023-02-27T19:28:38.247Z,4.90
2023-02-27T19:31:16.857Z,4.90
2023-02-27T19:34:17.872Z,4.90
2023-02-27T19:44:23.808Z,4.90
2023-02-27T19:49:23.820Z,4.90
2023-02-27T19:51:50.945Z,4.80
2023-02-27T19:54:41.393Z,4.80
2023-02-27T20:00:19.922Z,4.90
2023-02-27T20:16:37.052Z,4.90
2023-02-27T20:22:44.828Z,4.90
2023-02-27T20:25:33.174Z,4.90
2023-02-27T20:38:19.943Z,5.00
2023-02-27T20:41:05.010Z,5.00
2023-02-27T20:46:16.165Z,4.90
2023-02-27T20:51:20.384Z,4.90
2023-02-27T20:53:55.293Z,4.90
2023-02-27T20:56:36.588Z,4.90
2023-02-27T20:59:08.410Z,4.90
2023-02-27T21:04:22.462Z,4.80
2023-02-27T21:06:57.095Z,4.80
2023-02-27T21:26:18.960Z,4.80
2023-02-27T21:28:57.336Z,4.80
2023-02-27T21:32:26.313Z,4.70
2023-02-27T21:35:37.460Z,4.70
2023-02-27T21:38:37.901Z,4.70
2023-02-27T21:44:34.437Z,4.60
2023-02-27T21:49:46.025Z,4.50
2023-02-27T22:04:47.639Z,4.40
2023-02-27T22:07:49.516Z,4.30
2023-02-27T22:34:41.219Z,4.30
2023-02-27T22:37:36.576Z,4.30
2023-02-27T22:40:29.384Z,4.30
2023-02-27T22:47:53.723Z,4.30
2023-02-27T22:51:03.543Z,4.20
2023-02-27T22:53:55.854Z,4.30
2023-02-27T22:56:52.023Z,4.30
2023-02-27T23:00:03.965Z,4.40
